»·PEaware :: N1869A KBFL-KMHV

N1869A :: KBFL-KMHV

FLIGHT INFORMATION

Flight Status: Arrived
Operator: Privately registered:
United States
More flights under this callsign
Pilot: Sylvain P. (45051)
Aircraft: CESSNA 172 SKYHAWK
(C172)
More flights by this aircraft type
Origin: KBFL Meadows
United States
Destination: KMHV Mojave
United States
More flights between these airports :: More routes between these airports
Route:
File this flight plan on PilotEdge
Remarks:
Altitude:
(Current/Filed)
5,500ft
Speed:
(Current/Filed)
100kts
Departed: 15-Oct-23 04:52 PM
Arrived: 15-Oct-23 05:28 PM
Distance/Time
Traveled:
50nm/0:36
Distance/Time
To Go:
Arrived

Flight Plot

Page will automatically refresh every two minutes.


Map Options




Map Legend


Flown Route
Filed Route
Departure Airport
Arrival Airport
Navaid (VOR, NDB)
Fix

Horizontal Profiles

Position Reports

Time Latitude Longitude Heading Altitude Ground
Speed
15-Oct-23 16:19 35.437683 -119.056233 189 496ft 0kts
15-Oct-23 16:20 35.437683 -119.056233 189 496ft 0kts
15-Oct-23 16:21 35.437683 -119.056233 189 496ft 0kts
15-Oct-23 16:22 35.437683 -119.056233 189 496ft 0kts
15-Oct-23 16:23 35.437683 -119.056233 189 496ft 0kts
15-Oct-23 16:24 35.436491 -119.055180 186 489ft 0kts
15-Oct-23 16:25 35.436491 -119.055180 186 489ft 0kts
15-Oct-23 16:26 35.436491 -119.055180 186 489ft 0kts
15-Oct-23 16:27 35.436491 -119.055180 186 489ft 0kts
15-Oct-23 16:28 35.436491 -119.055180 186 489ft 0kts
15-Oct-23 16:29 35.436491 -119.055180 186 489ft 0kts
15-Oct-23 16:30 35.436409 -119.055165 159 490ft 0kts
15-Oct-23 16:31 35.436574 -119.054997 221 487ft 0kts
15-Oct-23 16:32 35.436574 -119.054997 221 487ft 0kts
15-Oct-23 16:33 35.436574 -119.054997 221 487ft 0kts
15-Oct-23 16:34 35.436574 -119.054997 221 487ft 0kts
15-Oct-23 16:35 35.436574 -119.054997 221 487ft 0kts
15-Oct-23 16:36 35.436574 -119.054997 221 487ft 0kts
15-Oct-23 16:37 35.436574 -119.054997 221 487ft 0kts
15-Oct-23 16:38 35.436574 -119.054997 221 487ft 0kts
15-Oct-23 16:39 35.436574 -119.054997 221 495ft 0kts
15-Oct-23 16:40 35.436574 -119.054997 221 495ft 0kts
15-Oct-23 16:41 35.436574 -119.054997 221 495ft 0kts
15-Oct-23 16:42 35.436574 -119.054997 221 495ft 0kts
15-Oct-23 16:43 35.436574 -119.054997 221 495ft 0kts
15-Oct-23 16:44 35.436574 -119.054997 221 495ft 0kts
15-Oct-23 16:45 35.436574 -119.054997 221 495ft 0kts
15-Oct-23 16:46 35.434431 -119.054637 135 487ft 19kts
15-Oct-23 16:47 35.428880 -119.047969 133 479ft 26kts
15-Oct-23 16:48 35.425692 -119.044538 257 471ft 0kts
15-Oct-23 16:49 35.425692 -119.044538 257 471ft 0kts
15-Oct-23 16:50 35.425692 -119.044539 257 471ft 0kts
15-Oct-23 16:51 35.432321 -119.054399 314 544ft 89kts
15-Oct-23 16:52 35.449990 -119.075102 315 1472ft 90kts
15-Oct-23 16:53 35.463638 -119.057071 78 2255ft 90kts
15-Oct-23 16:54 35.456868 -119.033789 162 2810ft 100kts
15-Oct-23 16:55 35.429805 -119.027723 149 3416ft 89kts
15-Oct-23 16:56 35.448315 -119.017631 8 3832ft 107kts
15-Oct-23 16:57 35.445473 -119.001184 161 4293ft 97kts
15-Oct-23 16:58 35.419556 -118.990457 160 4783ft 99kts
15-Oct-23 16:59 35.399340 -118.971616 120 5254ft 93kts
15-Oct-23 17:00 35.388477 -118.946029 117 5896ft 77kts
15-Oct-23 17:01 35.379916 -118.925138 116 6435ft 62kts
15-Oct-23 17:02 35.371718 -118.905238 117 6767ft 73kts
15-Oct-23 17:03 35.361477 -118.880373 117 7093ft 89kts
15-Oct-23 17:04 35.349477 -118.851192 117 7418ft 101kts
15-Oct-23 17:05 35.335757 -118.817822 117 7496ft 117kts
15-Oct-23 17:06 35.320786 -118.781405 117 7493ft 120kts
15-Oct-23 17:07 35.305639 -118.744593 117 7497ft 121kts
15-Oct-23 17:08 35.290413 -118.707625 117 7556ft 121kts
15-Oct-23 17:09 35.275152 -118.670600 117 7580ft 122kts
15-Oct-23 17:10 35.259702 -118.633174 117 7602ft 123kts
15-Oct-23 17:11 35.244221 -118.595705 116 7621ft 123kts
15-Oct-23 17:12 35.228682 -118.558140 116 7639ft 123kts
15-Oct-23 17:13 35.213188 -118.520725 116 7655ft 123kts
15-Oct-23 17:14 35.197637 -118.483228 116 7661ft 123kts
15-Oct-23 17:15 35.182034 -118.445630 116 7665ft 124kts
15-Oct-23 17:16 35.166066 -118.407221 116 7557ft 126kts
15-Oct-23 17:17 35.151986 -118.373388 115 7540ft 84kts
15-Oct-23 17:18 35.137940 -118.354591 138 7541ft 66kts
15-Oct-23 17:19 35.120827 -118.337084 138 7235ft 90kts
15-Oct-23 17:20 35.104444 -118.313857 69 6887ft 97kts
15-Oct-23 17:21 35.112159 -118.281627 95 6460ft 101kts
15-Oct-23 17:22 35.100941 -118.251288 115 6049ft 82kts
15-Oct-23 17:23 35.085828 -118.236372 153 5511ft 88kts
15-Oct-23 17:24 35.062822 -118.222985 148 4860ft 92kts
15-Oct-23 17:25 35.059370 -118.199125 89 3872ft 79kts
15-Oct-23 17:26 35.059245 -118.172488 93 3004ft 81kts
15-Oct-23 17:27 35.058467 -118.157746 180 2766ft 7kts
15-Oct-23 17:28 35.058445 -118.157746 180 2766ft 0kts
15-Oct-23 17:29 35.058445 -118.157746 180 2766ft 0kts
15-Oct-23 17:30 35.058445 -118.157746 180 2766ft 0kts
15-Oct-23 17:31 35.057139 -118.155270 127 2763ft 0kts
15-Oct-23 17:32 35.057139 -118.155270 127 2763ft 0kts
15-Oct-23 17:33 35.057139 -118.155270 127 2763ft 0kts

Navigation Log

Ident Type
Flight plan parsing failed, navigation log unavailable